sensor_id;sensor_type;location;lat;lon;timestamp;P1;durP1;ratioP1;P2;durP2;ratioP2
67979;SDS011;54760;47.490;19.030;2023-03-05T00:02:14;9.30;;;6.43;;
67979;SDS011;54760;47.490;19.030;2023-03-05T00:04:40;13.55;;;7.15;;
67979;SDS011;54760;47.490;19.030;2023-03-05T00:07:05;14.40;;;7.47;;
67979;SDS011;54760;47.490;19.030;2023-03-05T00:09:33;12.37;;;7.50;;
67979;SDS011;54760;47.490;19.030;2023-03-05T00:11:58;10.25;;;6.68;;
67979;SDS011;54760;47.490;19.030;2023-03-05T00:14:23;13.65;;;7.03;;
67979;SDS011;54760;47.490;19.030;2023-03-05T00:16:49;13.82;;;7.47;;
67979;SDS011;54760;47.490;19.030;2023-03-05T00:19:14;11.77;;;6.95;;
67979;SDS011;54760;47.490;19.030;2023-03-05T00:21:40;9.88;;;6.10;;
67979;SDS011;54760;47.490;19.030;2023-03-05T00:24:07;16.25;;;7.22;;
67979;SDS011;54760;47.490;19.030;2023-03-05T00:26:36;11.95;;;7.25;;
67979;SDS011;54760;47.490;19.030;2023-03-05T00:29:03;13.10;;;7.35;;
67979;SDS011;54760;47.490;19.030;2023-03-05T00:31:29;12.60;;;7.43;;
67979;SDS011;54760;47.490;19.030;2023-03-05T00:33:57;12.32;;;6.55;;
67979;SDS011;54760;47.490;19.030;2023-03-05T00:36:24;11.48;;;6.68;;
67979;SDS011;54760;47.490;19.030;2023-03-05T00:38:51;12.55;;;7.12;;
67979;SDS011;54760;47.490;19.030;2023-03-05T00:41:17;13.62;;;6.95;;
67979;SDS011;54760;47.490;19.030;2023-03-05T00:43:42;10.35;;;6.57;;
67979;SDS011;54760;47.490;19.030;2023-03-05T00:46:08;11.48;;;6.55;;
67979;SDS011;54760;47.490;19.030;2023-03-05T00:48:33;12.10;;;7.47;;
67979;SDS011;54760;47.490;19.030;2023-03-05T00:50:59;10.15;;;7.15;;
67979;SDS011;54760;47.490;19.030;2023-03-05T00:53:24;12.02;;;7.45;;
67979;SDS011;54760;47.490;19.030;2023-03-05T00:55:50;11.15;;;5.90;;
67979;SDS011;54760;47.490;19.030;2023-03-05T00:58:15;14.48;;;6.85;;
67979;SDS011;54760;47.490;19.030;2023-03-05T01:00:41;11.25;;;5.97;;
67979;SDS011;54760;47.490;19.030;2023-03-05T01:03:07;11.35;;;5.60;;
67979;SDS011;54760;47.490;19.030;2023-03-05T01:05:33;10.27;;;6.47;;
67979;SDS011;54760;47.490;19.030;2023-03-05T01:07:58;10.23;;;6.30;;
67979;SDS011;54760;47.490;19.030;2023-03-05T01:10:24;10.02;;;6.10;;
67979;SDS011;54760;47.490;19.030;2023-03-05T01:12:51;10.38;;;5.12;;
67979;SDS011;54760;47.490;19.030;2023-03-05T01:15:17;11.82;;;6.30;;
67979;SDS011;54760;47.490;19.030;2023-03-05T01:17:42;11.35;;;6.97;;
67979;SDS011;54760;47.490;19.030;2023-03-05T01:20:08;9.68;;;6.15;;
67979;SDS011;54760;47.490;19.030;2023-03-05T01:22:36;11.77;;;6.45;;
67979;SDS011;54760;47.490;19.030;2023-03-05T01:25:02;8.23;;;5.20;;
67979;SDS011;54760;47.490;19.030;2023-03-05T01:27:27;12.15;;;6.32;;
67979;SDS011;54760;47.490;19.030;2023-03-05T01:29:53;14.30;;;6.18;;
67979;SDS011;54760;47.490;19.030;2023-03-05T01:32:18;10.48;;;6.00;;
67979;SDS011;54760;47.490;19.030;2023-03-05T01:34:44;11.98;;;6.53;;
67979;SDS011;54760;47.490;19.030;2023-03-05T01:37:09;13.05;;;7.10;;
67979;SDS011;54760;47.490;19.030;2023-03-05T01:39:34;11.40;;;6.18;;
67979;SDS011;54760;47.490;19.030;2023-03-05T01:42:00;11.45;;;5.30;;
67979;SDS011;54760;47.490;19.030;2023-03-05T01:44:27;10.25;;;5.68;;
67979;SDS011;54760;47.490;19.030;2023-03-05T01:46:54;8.50;;;5.57;;
67979;SDS011;54760;47.490;19.030;2023-03-05T01:51:53;11.27;;;6.25;;
67979;SDS011;54760;47.490;19.030;2023-03-05T01:54:30;11.73;;;6.07;;
67979;SDS011;54760;47.490;19.030;2023-03-05T01:56:59;12.45;;;5.97;;
67979;SDS011;54760;47.490;19.030;2023-03-05T01:59:30;9.25;;;5.47;;
67979;SDS011;54760;47.490;19.030;2023-03-05T02:01:56;8.93;;;5.82;;
67979;SDS011;54760;47.490;19.030;2023-03-05T02:04:25;11.48;;;6.53;;
67979;SDS011;54760;47.490;19.030;2023-03-05T02:06:58;9.13;;;4.87;;
67979;SDS011;54760;47.490;19.030;2023-03-05T02:09:25;10.00;;;5.40;;
67979;SDS011;54760;47.490;19.030;2023-03-05T02:11:52;12.20;;;5.93;;
67979;SDS011;54760;47.490;19.030;2023-03-05T02:14:19;10.18;;;6.03;;
67979;SDS011;54760;47.490;19.030;2023-03-05T02:16:45;9.48;;;5.35;;
67979;SDS011;54760;47.490;19.030;2023-03-05T02:19:11;8.73;;;5.20;;
67979;SDS011;54760;47.490;19.030;2023-03-05T02:21:44;12.77;;;6.78;;
67979;SDS011;54760;47.490;19.030;2023-03-05T02:24:31;8.50;;;4.82;;
67979;SDS011;54760;47.490;19.030;2023-03-05T02:27:00;12.52;;;6.10;;
67979;SDS011;54760;47.490;19.030;2023-03-05T02:29:27;9.38;;;4.95;;
67979;SDS011;54760;47.490;19.030;2023-03-05T02:31:54;14.27;;;6.87;;
67979;SDS011;54760;47.490;19.030;2023-03-05T02:34:20;9.23;;;5.20;;
67979;SDS011;54760;47.490;19.030;2023-03-05T02:36:46;11.60;;;6.57;;
67979;SDS011;54760;47.490;19.030;2023-03-05T02:39:14;11.77;;;6.00;;
67979;SDS011;54760;47.490;19.030;2023-03-05T02:41:40;10.68;;;6.22;;
67979;SDS011;54760;47.490;19.030;2023-03-05T02:44:05;13.82;;;6.90;;
67979;SDS011;54760;47.490;19.030;2023-03-05T02:46:31;11.63;;;6.50;;
67979;SDS011;54760;47.490;19.030;2023-03-05T02:48:56;11.73;;;6.45;;
67979;SDS011;54760;47.490;19.030;2023-03-05T02:51:21;10.48;;;5.93;;
67979;SDS011;54760;47.490;19.030;2023-03-05T02:53:47;10.10;;;6.35;;
67979;SDS011;54760;47.490;19.030;2023-03-05T02:56:12;13.15;;;6.75;;
67979;SDS011;54760;47.490;19.030;2023-03-05T02:58:38;9.75;;;6.07;;
67979;SDS011;54760;47.490;19.030;2023-03-05T03:01:03;11.68;;;6.05;;
67979;SDS011;54760;47.490;19.030;2023-03-05T03:03:29;11.55;;;6.10;;
67979;SDS011;54760;47.490;19.030;2023-03-05T03:05:54;11.15;;;5.25;;
67979;SDS011;54760;47.490;19.030;2023-03-05T03:08:20;7.62;;;4.80;;
67979;SDS011;54760;47.490;19.030;2023-03-05T03:10:45;11.23;;;6.25;;
67979;SDS011;54760;47.490;19.030;2023-03-05T03:13:10;14.38;;;6.80;;
67979;SDS011;54760;47.490;19.030;2023-03-05T03:15:36;9.82;;;5.95;;
67979;SDS011;54760;47.490;19.030;2023-03-05T03:18:03;13.70;;;6.87;;
67979;SDS011;54760;47.490;19.030;2023-03-05T03:20:28;10.27;;;6.70;;
67979;SDS011;54760;47.490;19.030;2023-03-05T03:22:54;11.05;;;6.35;;
67979;SDS011;54760;47.490;19.030;2023-03-05T03:25:21;10.88;;;6.70;;
67979;SDS011;54760;47.490;19.030;2023-03-05T03:27:47;13.32;;;6.93;;
67979;SDS011;54760;47.490;19.030;2023-03-05T03:30:12;10.60;;;6.03;;
67979;SDS011;54760;47.490;19.030;2023-03-05T03:32:38;14.93;;;6.70;;
67979;SDS011;54760;47.490;19.030;2023-03-05T03:35:04;14.73;;;6.43;;
67979;SDS011;54760;47.490;19.030;2023-03-05T03:37:30;11.30;;;5.87;;
67979;SDS011;54760;47.490;19.030;2023-03-05T03:39:55;9.88;;;6.05;;
67979;SDS011;54760;47.490;19.030;2023-03-05T03:42:22;14.63;;;6.93;;
67979;SDS011;54760;47.490;19.030;2023-03-05T03:44:48;12.13;;;5.75;;
67979;SDS011;54760;47.490;19.030;2023-03-05T03:47:14;9.82;;;5.93;;
67979;SDS011;54760;47.490;19.030;2023-03-05T03:49:39;10.75;;;6.43;;
67979;SDS011;54760;47.490;19.030;2023-03-05T03:52:05;13.48;;;5.93;;
67979;SDS011;54760;47.490;19.030;2023-03-05T03:54:31;10.52;;;5.85;;
67979;SDS011;54760;47.490;19.030;2023-03-05T03:56:56;10.73;;;6.28;;
67979;SDS011;54760;47.490;19.030;2023-03-05T03:59:22;9.00;;;6.12;;
67979;SDS011;54760;47.490;19.030;2023-03-05T04:01:47;10.32;;;6.10;;
67979;SDS011;54760;47.490;19.030;2023-03-05T04:04:13;12.27;;;6.75;;
67979;SDS011;54760;47.490;19.030;2023-03-05T04:06:38;8.50;;;4.97;;
67979;SDS011;54760;47.490;19.030;2023-03-05T04:09:05;13.50;;;5.70;;
67979;SDS011;54760;47.490;19.030;2023-03-05T04:11:32;9.68;;;6.22;;
67979;SDS011;54760;47.490;19.030;2023-03-05T04:13:58;15.43;;;6.05;;
67979;SDS011;54760;47.490;19.030;2023-03-05T04:16:24;9.32;;;6.22;;
67979;SDS011;54760;47.490;19.030;2023-03-05T04:18:49;12.32;;;6.22;;
67979;SDS011;54760;47.490;19.030;2023-03-05T04:21:15;15.30;;;5.60;;
67979;SDS011;54760;47.490;19.030;2023-03-05T04:23:40;10.70;;;6.22;;
67979;SDS011;54760;47.490;19.030;2023-03-05T04:26:06;10.93;;;5.80;;
67979;SDS011;54760;47.490;19.030;2023-03-05T04:28:31;8.65;;;5.50;;
67979;SDS011;54760;47.490;19.030;2023-03-05T04:30:57;11.23;;;6.00;;
67979;SDS011;54760;47.490;19.030;2023-03-05T04:33:22;10.65;;;5.62;;
67979;SDS011;54760;47.490;19.030;2023-03-05T04:35:48;10.13;;;5.85;;
67979;SDS011;54760;47.490;19.030;2023-03-05T04:38:14;9.07;;;5.65;;
67979;SDS011;54760;47.490;19.030;2023-03-05T04:40:39;8.38;;;5.40;;
67979;SDS011;54760;47.490;19.030;2023-03-05T04:43:05;8.73;;;5.25;;
67979;SDS011;54760;47.490;19.030;2023-03-05T04:45:31;11.43;;;5.70;;
67979;SDS011;54760;47.490;19.030;2023-03-05T04:47:57;9.48;;;5.47;;
67979;SDS011;54760;47.490;19.030;2023-03-05T04:50:23;13.48;;;6.00;;
67979;SDS011;54760;47.490;19.030;2023-03-05T04:52:48;10.55;;;6.82;;
67979;SDS011;54760;47.490;19.030;2023-03-05T04:55:14;11.63;;;5.90;;
67979;SDS011;54760;47.490;19.030;2023-03-05T04:57:41;11.40;;;6.10;;
67979;SDS011;54760;47.490;19.030;2023-03-05T05:00:09;14.63;;;6.10;;
67979;SDS011;54760;47.490;19.030;2023-03-05T05:02:38;12.32;;;6.05;;
67979;SDS011;54760;47.490;19.030;2023-03-05T05:05:08;9.88;;;5.87;;
67979;SDS011;54760;47.490;19.030;2023-03-05T05:07:36;11.55;;;6.05;;
67979;SDS011;54760;47.490;19.030;2023-03-05T05:10:01;12.20;;;6.22;;
67979;SDS011;54760;47.490;19.030;2023-03-05T05:12:28;12.60;;;6.57;;
67979;SDS011;54760;47.490;19.030;2023-03-05T05:14:55;11.68;;;6.20;;
67979;SDS011;54760;47.490;19.030;2023-03-05T05:17:21;14.25;;;6.28;;
67979;SDS011;54760;47.490;19.030;2023-03-05T05:19:47;13.25;;;6.40;;
67979;SDS011;54760;47.490;19.030;2023-03-05T05:22:13;12.65;;;6.22;;
67979;SDS011;54760;47.490;19.030;2023-03-05T05:24:38;12.40;;;6.78;;
67979;SDS011;54760;47.490;19.030;2023-03-05T05:27:03;12.50;;;6.80;;
67979;SDS011;54760;47.490;19.030;2023-03-05T05:29:29;13.93;;;7.15;;
67979;SDS011;54760;47.490;19.030;2023-03-05T05:31:54;11.63;;;6.72;;
67979;SDS011;54760;47.490;19.030;2023-03-05T05:34:20;13.27;;;6.85;;
67979;SDS011;54760;47.490;19.030;2023-03-05T05:36:46;14.90;;;6.93;;
67979;SDS011;54760;47.490;19.030;2023-03-05T05:39:11;15.45;;;6.05;;
67979;SDS011;54760;47.490;19.030;2023-03-05T05:41:37;10.88;;;6.75;;
67979;SDS011;54760;47.490;19.030;2023-03-05T05:44:02;13.93;;;7.45;;
67979;SDS011;54760;47.490;19.030;2023-03-05T05:46:27;11.77;;;6.95;;
67979;SDS011;54760;47.490;19.030;2023-03-05T05:48:53;12.50;;;6.37;;
67979;SDS011;54760;47.490;19.030;2023-03-05T05:51:20;11.02;;;6.68;;
67979;SDS011;54760;47.490;19.030;2023-03-05T05:53:47;11.12;;;6.50;;
67979;SDS011;54760;47.490;19.030;2023-03-05T05:56:13;10.98;;;6.43;;
67979;SDS011;54760;47.490;19.030;2023-03-05T05:58:39;12.25;;;6.53;;
67979;SDS011;54760;47.490;19.030;2023-03-05T06:01:13;13.07;;;6.30;;
67979;SDS011;54760;47.490;19.030;2023-03-05T06:03:40;12.77;;;6.75;;
67979;SDS011;54760;47.490;19.030;2023-03-05T06:06:09;14.27;;;7.87;;
67979;SDS011;54760;47.490;19.030;2023-03-05T06:08:36;13.90;;;7.75;;
67979;SDS011;54760;47.490;19.030;2023-03-05T06:11:02;13.18;;;7.32;;
67979;SDS011;54760;47.490;19.030;2023-03-05T06:13:28;12.52;;;7.10;;
67979;SDS011;54760;47.490;19.030;2023-03-05T06:15:55;17.08;;;7.95;;
67979;SDS011;54760;47.490;19.030;2023-03-05T06:18:21;13.48;;;6.95;;
67979;SDS011;54760;47.490;19.030;2023-03-05T06:20:52;14.70;;;7.65;;
67979;SDS011;54760;47.490;19.030;2023-03-05T06:23:19;12.63;;;7.95;;
67979;SDS011;54760;47.490;19.030;2023-03-05T06:25:44;12.18;;;7.40;;
67979;SDS011;54760;47.490;19.030;2023-03-05T06:28:09;13.70;;;7.78;;
67979;SDS011;54760;47.490;19.030;2023-03-05T06:30:35;15.63;;;7.70;;
67979;SDS011;54760;47.490;19.030;2023-03-05T06:33:00;12.50;;;7.90;;
67979;SDS011;54760;47.490;19.030;2023-03-05T06:35:26;12.95;;;7.72;;
67979;SDS011;54760;47.490;19.030;2023-03-05T06:37:51;14.15;;;7.03;;
67979;SDS011;54760;47.490;19.030;2023-03-05T06:40:17;14.65;;;7.50;;
67979;SDS011;54760;47.490;19.030;2023-03-05T06:42:42;13.13;;;7.62;;
67979;SDS011;54760;47.490;19.030;2023-03-05T06:45:08;15.18;;;7.50;;
67979;SDS011;54760;47.490;19.030;2023-03-05T06:47:34;12.95;;;7.05;;
67979;SDS011;54760;47.490;19.030;2023-03-05T06:49:59;11.95;;;6.65;;
67979;SDS011;54760;47.490;19.030;2023-03-05T06:52:25;12.40;;;7.18;;
67979;SDS011;54760;47.490;19.030;2023-03-05T06:54:50;13.07;;;7.72;;
67979;SDS011;54760;47.490;19.030;2023-03-05T06:57:16;15.13;;;7.53;;
67979;SDS011;54760;47.490;19.030;2023-03-05T06:59:42;12.55;;;7.55;;
67979;SDS011;54760;47.490;19.030;2023-03-05T07:02:08;14.07;;;7.43;;
67979;SDS011;54760;47.490;19.030;2023-03-05T07:04:36;12.60;;;8.32;;
67979;SDS011;54760;47.490;19.030;2023-03-05T07:07:02;13.30;;;7.95;;
67979;SDS011;54760;47.490;19.030;2023-03-05T07:09:27;14.75;;;7.60;;
67979;SDS011;54760;47.490;19.030;2023-03-05T07:11:54;12.65;;;7.60;;
67979;SDS011;54760;47.490;19.030;2023-03-05T07:14:20;12.70;;;7.22;;
67979;SDS011;54760;47.490;19.030;2023-03-05T07:16:45;12.23;;;7.30;;
67979;SDS011;54760;47.490;19.030;2023-03-05T07:19:11;12.60;;;7.32;;
67979;SDS011;54760;47.490;19.030;2023-03-05T07:21:36;14.15;;;7.30;;
67979;SDS011;54760;47.490;19.030;2023-03-05T07:24:02;15.20;;;7.80;;
67979;SDS011;54760;47.490;19.030;2023-03-05T07:26:29;14.18;;;7.40;;
67979;SDS011;54760;47.490;19.030;2023-03-05T07:28:55;12.27;;;7.80;;
67979;SDS011;54760;47.490;19.030;2023-03-05T07:31:21;14.13;;;7.37;;
67979;SDS011;54760;47.490;19.030;2023-03-05T07:33:54;14.75;;;7.62;;
67979;SDS011;54760;47.490;19.030;2023-03-05T07:36:21;13.93;;;8.38;;
67979;SDS011;54760;47.490;19.030;2023-03-05T07:38:46;13.13;;;8.13;;
67979;SDS011;54760;47.490;19.030;2023-03-05T07:41:13;13.82;;;8.02;;
67979;SDS011;54760;47.490;19.030;2023-03-05T07:43:44;12.98;;;7.75;;
67979;SDS011;54760;47.490;19.030;2023-03-05T07:46:11;14.65;;;8.50;;
67979;SDS011;54760;47.490;19.030;2023-03-05T07:48:39;11.60;;;7.25;;
67979;SDS011;54760;47.490;19.030;2023-03-05T07:51:06;15.25;;;8.65;;
67979;SDS011;54760;47.490;19.030;2023-03-05T07:53:34;13.70;;;6.78;;
67979;SDS011;54760;47.490;19.030;2023-03-05T07:55:59;13.25;;;8.27;;
67979;SDS011;54760;47.490;19.030;2023-03-05T07:58:25;14.20;;;7.35;;
67979;SDS011;54760;47.490;19.030;2023-03-05T08:00:51;15.18;;;7.97;;
67979;SDS011;54760;47.490;19.030;2023-03-05T08:03:16;12.98;;;7.68;;
67979;SDS011;54760;47.490;19.030;2023-03-05T08:05:42;15.60;;;7.57;;
67979;SDS011;54760;47.490;19.030;2023-03-05T08:08:07;17.52;;;7.80;;
67979;SDS011;54760;47.490;19.030;2023-03-05T08:10:34;12.23;;;7.68;;
67979;SDS011;54760;47.490;19.030;2023-03-05T08:13:00;11.60;;;6.85;;
67979;SDS011;54760;47.490;19.030;2023-03-05T08:15:26;10.93;;;7.28;;
67979;SDS011;54760;47.490;19.030;2023-03-05T08:17:52;15.63;;;7.45;;
67979;SDS011;54760;47.490;19.030;2023-03-05T08:20:18;11.63;;;7.25;;
67979;SDS011;54760;47.490;19.030;2023-03-05T08:22:44;9.70;;;6.20;;
67979;SDS011;54760;47.490;19.030;2023-03-05T08:25:10;12.15;;;6.87;;
67979;SDS011;54760;47.490;19.030;2023-03-05T08:27:42;13.07;;;6.85;;
67979;SDS011;54760;47.490;19.030;2023-03-05T08:30:10;11.90;;;7.00;;
67979;SDS011;54760;47.490;19.030;2023-03-05T08:32:39;14.27;;;7.15;;
67979;SDS011;54760;47.490;19.030;2023-03-05T08:35:04;11.85;;;7.50;;
67979;SDS011;54760;47.490;19.030;2023-03-05T08:37:31;14.98;;;7.85;;
67979;SDS011;54760;47.490;19.030;2023-03-05T08:39:57;13.23;;;7.50;;
67979;SDS011;54760;47.490;19.030;2023-03-05T08:42:23;11.45;;;7.57;;
67979;SDS011;54760;47.490;19.030;2023-03-05T08:44:49;12.27;;;7.37;;
67979;SDS011;54760;47.490;19.030;2023-03-05T08:47:14;10.25;;;6.87;;
67979;SDS011;54760;47.490;19.030;2023-03-05T08:49:40;13.13;;;7.85;;
67979;SDS011;54760;47.490;19.030;2023-03-05T08:52:05;12.75;;;7.93;;
67979;SDS011;54760;47.490;19.030;2023-03-05T08:54:31;13.43;;;7.68;;
67979;SDS011;54760;47.490;19.030;2023-03-05T08:56:58;11.85;;;7.57;;
67979;SDS011;54760;47.490;19.030;2023-03-05T08:59:23;11.23;;;6.95;;
67979;SDS011;54760;47.490;19.030;2023-03-05T09:01:48;12.20;;;6.80;;
67979;SDS011;54760;47.490;19.030;2023-03-05T09:04:14;13.18;;;7.90;;
67979;SDS011;54760;47.490;19.030;2023-03-05T09:06:39;13.88;;;7.97;;
67979;SDS011;54760;47.490;19.030;2023-03-05T09:09:06;12.52;;;7.25;;
67979;SDS011;54760;47.490;19.030;2023-03-05T09:11:32;11.38;;;7.40;;
67979;SDS011;54760;47.490;19.030;2023-03-05T09:14:00;12.25;;;6.80;;
67979;SDS011;54760;47.490;19.030;2023-03-05T09:16:26;14.48;;;6.60;;
67979;SDS011;54760;47.490;19.030;2023-03-05T09:18:52;10.25;;;6.12;;
67979;SDS011;54760;47.490;19.030;2023-03-05T09:21:17;11.23;;;6.20;;
67979;SDS011;54760;47.490;19.030;2023-03-05T09:23:43;11.05;;;6.53;;
67979;SDS011;54760;47.490;19.030;2023-03-05T09:26:11;12.18;;;6.60;;
67979;SDS011;54760;47.490;19.030;2023-03-05T09:28:39;8.07;;;5.62;;
67979;SDS011;54760;47.490;19.030;2023-03-05T09:31:05;10.65;;;6.47;;
67979;SDS011;54760;47.490;19.030;2023-03-05T09:33:32;12.10;;;7.07;;
67979;SDS011;54760;47.490;19.030;2023-03-05T09:35:59;12.88;;;7.03;;
67979;SDS011;54760;47.490;19.030;2023-03-05T09:38:26;10.57;;;6.90;;
67979;SDS011;54760;47.490;19.030;2023-03-05T09:40:58;9.98;;;6.55;;
67979;SDS011;54760;47.490;19.030;2023-03-05T09:46:38;10.15;;;6.57;;
67979;SDS011;54760;47.490;19.030;2023-03-05T09:51:59;12.10;;;7.25;;
67979;SDS011;54760;47.490;19.030;2023-03-05T09:54:34;10.43;;;6.53;;
67979;SDS011;54760;47.490;19.030;2023-03-05T09:57:04;11.85;;;7.80;;
67979;SDS011;54760;47.490;19.030;2023-03-05T09:59:52;14.13;;;7.03;;
67979;SDS011;54760;47.490;19.030;2023-03-05T10:02:22;12.43;;;7.00;;
67979;SDS011;54760;47.490;19.030;2023-03-05T10:07:33;11.82;;;7.37;;
67979;SDS011;54760;47.490;19.030;2023-03-05T10:10:11;11.50;;;6.93;;
67979;SDS011;54760;47.490;19.030;2023-03-05T10:12:43;12.75;;;7.85;;
67979;SDS011;54760;47.490;19.030;2023-03-05T10:15:11;13.82;;;7.75;;
67979;SDS011;54760;47.490;19.030;2023-03-05T10:17:45;14.45;;;8.43;;
67979;SDS011;54760;47.490;19.030;2023-03-05T10:20:22;12.10;;;7.57;;
67979;SDS011;54760;47.490;19.030;2023-03-05T10:23:12;14.55;;;8.05;;
67979;SDS011;54760;47.490;19.030;2023-03-05T10:42:30;10.02;;;6.57;;
67979;SDS011;54760;47.490;19.030;2023-03-05T10:45:14;10.23;;;6.30;;
67979;SDS011;54760;47.490;19.030;2023-03-05T10:50:17;11.73;;;7.12;;
67979;SDS011;54760;47.490;19.030;2023-03-05T10:53:05;14.85;;;8.23;;
67979;SDS011;54760;47.490;19.030;2023-03-05T10:55:34;10.18;;;7.07;;
67979;SDS011;54760;47.490;19.030;2023-03-05T10:58:00;11.77;;;7.28;;
67979;SDS011;54760;47.490;19.030;2023-03-05T11:00:34;12.88;;;7.40;;
67979;SDS011;54760;47.490;19.030;2023-03-05T11:03:01;9.90;;;6.40;;
67979;SDS011;54760;47.490;19.030;2023-03-05T11:11:11;9.77;;;6.80;;
67979;SDS011;54760;47.490;19.030;2023-03-05T11:13:40;14.02;;;7.50;;
67979;SDS011;54760;47.490;19.030;2023-03-05T11:16:31;11.20;;;7.05;;
67979;SDS011;54760;47.490;19.030;2023-03-05T11:21:47;12.30;;;7.10;;
67979;SDS011;54760;47.490;19.030;2023-03-05T11:24:30;11.07;;;7.10;;
67979;SDS011;54760;47.490;19.030;2023-03-05T11:26:56;13.32;;;7.65;;
67979;SDS011;54760;47.490;19.030;2023-03-05T11:29:25;10.88;;;6.85;;
67979;SDS011;54760;47.490;19.030;2023-03-05T11:31:54;9.35;;;6.68;;
67979;SDS011;54760;47.490;19.030;2023-03-05T11:34:30;10.25;;;7.12;;
67979;SDS011;54760;47.490;19.030;2023-03-05T11:37:00;11.65;;;7.12;;
67979;SDS011;54760;47.490;19.030;2023-03-05T11:39:28;11.25;;;6.90;;
67979;SDS011;54760;47.490;19.030;2023-03-05T11:41:58;11.00;;;7.53;;
67979;SDS011;54760;47.490;19.030;2023-03-05T11:49:54;10.15;;;6.32;;
67979;SDS011;54760;47.490;19.030;2023-03-05T11:52:27;10.35;;;7.07;;
67979;SDS011;54760;47.490;19.030;2023-03-05T11:55:07;9.65;;;7.00;;
67979;SDS011;54760;47.490;19.030;2023-03-05T11:57:49;13.52;;;7.43;;
67979;SDS011;54760;47.490;19.030;2023-03-05T12:00:16;10.30;;;6.10;;
67979;SDS011;54760;47.490;19.030;2023-03-05T12:02:49;11.07;;;6.55;;
67979;SDS011;54760;47.490;19.030;2023-03-05T12:05:18;11.23;;;6.30;;
67979;SDS011;54760;47.490;19.030;2023-03-05T12:07:46;9.00;;;6.30;;
67979;SDS011;54760;47.490;19.030;2023-03-05T12:10:19;9.43;;;6.50;;
67979;SDS011;54760;47.490;19.030;2023-03-05T12:20:56;7.00;;;4.65;;
67979;SDS011;54760;47.490;19.030;2023-03-05T12:23:59;6.87;;;4.80;;
67979;SDS011;54760;47.490;19.030;2023-03-05T12:29:37;8.00;;;5.37;;
67979;SDS011;54760;47.490;19.030;2023-03-05T12:32:04;9.27;;;5.32;;
67979;SDS011;54760;47.490;19.030;2023-03-05T12:39:56;7.28;;;4.90;;
67979;SDS011;54760;47.490;19.030;2023-03-05T12:52:56;10.32;;;4.90;;
67979;SDS011;54760;47.490;19.030;2023-03-05T12:55:35;6.60;;;4.87;;
67979;SDS011;54760;47.490;19.030;2023-03-05T12:58:19;6.37;;;4.30;;
67979;SDS011;54760;47.490;19.030;2023-03-05T13:01:13;7.55;;;4.37;;
67979;SDS011;54760;47.490;19.030;2023-03-05T13:03:54;6.85;;;4.43;;
67979;SDS011;54760;47.490;19.030;2023-03-05T13:06:30;7.55;;;4.53;;
67979;SDS011;54760;47.490;19.030;2023-03-05T13:09:01;6.60;;;4.65;;
67979;SDS011;54760;47.490;19.030;2023-03-05T13:11:33;7.45;;;4.93;;
67979;SDS011;54760;47.490;19.030;2023-03-05T13:14:03;6.85;;;4.50;;
67979;SDS011;54760;47.490;19.030;2023-03-05T13:16:30;9.63;;;4.55;;
67979;SDS011;54760;47.490;19.030;2023-03-05T13:19:01;7.50;;;4.30;;
67979;SDS011;54760;47.490;19.030;2023-03-05T13:21:28;8.38;;;4.72;;
67979;SDS011;54760;47.490;19.030;2023-03-05T13:23:57;6.72;;;4.35;;
67979;SDS011;54760;47.490;19.030;2023-03-05T13:26:27;7.50;;;4.30;;
67979;SDS011;54760;47.490;19.030;2023-03-05T13:29:07;8.90;;;4.80;;
67979;SDS011;54760;47.490;19.030;2023-03-05T13:31:34;8.27;;;4.72;;
67979;SDS011;54760;47.490;19.030;2023-03-05T13:34:13;11.32;;;5.20;;
67979;SDS011;54760;47.490;19.030;2023-03-05T13:37:04;8.93;;;4.40;;
67979;SDS011;54760;47.490;19.030;2023-03-05T13:39:45;8.27;;;5.00;;
67979;SDS011;54760;47.490;19.030;2023-03-05T13:42:17;9.05;;;4.93;;
67979;SDS011;54760;47.490;19.030;2023-03-05T13:44:52;9.60;;;5.05;;
67979;SDS011;54760;47.490;19.030;2023-03-05T13:47:22;8.85;;;4.28;;
67979;SDS011;54760;47.490;19.030;2023-03-05T13:49:56;7.78;;;5.28;;
67979;SDS011;54760;47.490;19.030;2023-03-05T13:52:26;8.52;;;5.43;;
67979;SDS011;54760;47.490;19.030;2023-03-05T13:54:55;8.38;;;5.15;;
67979;SDS011;54760;47.490;19.030;2023-03-05T13:57:32;6.50;;;5.03;;
67979;SDS011;54760;47.490;19.030;2023-03-05T13:59:59;11.27;;;5.70;;
67979;SDS011;54760;47.490;19.030;2023-03-05T14:02:25;9.32;;;4.78;;
67979;SDS011;54760;47.490;19.030;2023-03-05T14:04:53;9.77;;;5.80;;
67979;SDS011;54760;47.490;19.030;2023-03-05T14:09:45;8.35;;;5.43;;
67979;SDS011;54760;47.490;19.030;2023-03-05T14:15:18;8.40;;;5.53;;
67979;SDS011;54760;47.490;19.030;2023-03-05T14:17:49;9.50;;;5.85;;
67979;SDS011;54760;47.490;19.030;2023-03-05T14:20:23;12.18;;;5.43;;
67979;SDS011;54760;47.490;19.030;2023-03-05T14:22:56;7.20;;;4.50;;
67979;SDS011;54760;47.490;19.030;2023-03-05T14:27:54;7.78;;;5.50;;
67979;SDS011;54760;47.490;19.030;2023-03-05T14:30:22;7.28;;;4.62;;
67979;SDS011;54760;47.490;19.030;2023-03-05T14:32:50;7.95;;;5.05;;
67979;SDS011;54760;47.490;19.030;2023-03-05T14:35:19;14.07;;;5.82;;
67979;SDS011;54760;47.490;19.030;2023-03-05T14:37:47;9.10;;;5.15;;
67979;SDS011;54760;47.490;19.030;2023-03-05T14:45:13;8.23;;;5.62;;
67979;SDS011;54760;47.490;19.030;2023-03-05T14:47:40;9.00;;;5.30;;
67979;SDS011;54760;47.490;19.030;2023-03-05T14:50:07;9.15;;;4.85;;
67979;SDS011;54760;47.490;19.030;2023-03-05T14:52:35;7.25;;;4.80;;
67979;SDS011;54760;47.490;19.030;2023-03-05T14:55:01;8.88;;;4.87;;
67979;SDS011;54760;47.490;19.030;2023-03-05T14:57:27;7.62;;;4.78;;
67979;SDS011;54760;47.490;19.030;2023-03-05T14:59:55;9.35;;;5.28;;
67979;SDS011;54760;47.490;19.030;2023-03-05T15:02:22;8.82;;;5.47;;
67979;SDS011;54760;47.490;19.030;2023-03-05T15:04:48;8.75;;;5.30;;
67979;SDS011;54760;47.490;19.030;2023-03-05T15:07:29;8.77;;;5.18;;
67979;SDS011;54760;47.490;19.030;2023-03-05T15:09:56;7.43;;;4.60;;
67979;SDS011;54760;47.490;19.030;2023-03-05T15:12:23;7.57;;;4.90;;
67979;SDS011;54760;47.490;19.030;2023-03-05T15:14:52;10.30;;;4.93;;
67979;SDS011;54760;47.490;19.030;2023-03-05T15:17:32;8.30;;;4.95;;
67979;SDS011;54760;47.490;19.030;2023-03-05T15:20:04;7.07;;;5.00;;
67979;SDS011;54760;47.490;19.030;2023-03-05T15:22:34;8.95;;;4.82;;
67979;SDS011;54760;47.490;19.030;2023-03-05T15:25:00;6.25;;;4.57;;
67979;SDS011;54760;47.490;19.030;2023-03-05T15:27:26;6.95;;;4.45;;
67979;SDS011;54760;47.490;19.030;2023-03-05T15:29:51;8.50;;;4.57;;
67979;SDS011;54760;47.490;19.030;2023-03-05T15:32:17;7.82;;;4.93;;
67979;SDS011;54760;47.490;19.030;2023-03-05T15:34:42;6.53;;;4.60;;
67979;SDS011;54760;47.490;19.030;2023-03-05T15:37:08;9.30;;;4.97;;
67979;SDS011;54760;47.490;19.030;2023-03-05T15:39:33;9.85;;;5.40;;
67979;SDS011;54760;47.490;19.030;2023-03-05T15:41:59;9.63;;;4.70;;
67979;SDS011;54760;47.490;19.030;2023-03-05T15:44:25;9.32;;;5.10;;
67979;SDS011;54760;47.490;19.030;2023-03-05T15:46:50;7.50;;;4.70;;
67979;SDS011;54760;47.490;19.030;2023-03-05T15:49:16;7.65;;;4.43;;
67979;SDS011;54760;47.490;19.030;2023-03-05T15:51:46;6.32;;;4.10;;
67979;SDS011;54760;47.490;19.030;2023-03-05T15:54:12;7.53;;;4.78;;
67979;SDS011;54760;47.490;19.030;2023-03-05T15:56:38;7.15;;;4.32;;